Freeport, Michigan
Current Conditions -  °F | °C
As of 1:53 PM on Friday 21 Nov 2014 (Local Time) from KGRR Reporting Station
Few Clouds Few Clouds  
Wind Chill: 16°   Ceiling: Unl
Heat Index: 25°   Visibility: 10mi
Dew Point: 15°   Wind: 8mph
Humidity: 66%   Direction: 190°S
Pressure: 30.4"   Gusts: NA
Location:  42.77°N, 85.31°W
Report Text: KGRR 211853Z 19007KT 10SM FEW029 M04/M09 A3040 RMK AO2 SLP309 T10391094
Loading
Personal Weather Stations






























Interactive Weather Map New forecast layout! Learn more

10-Day Weather Forecast

Advertisements
Track Severe Weather on mobile